Time;durP1;ratioP1;P1;durP2;ratioP2;P2;SDS_P1;SDS_P2;PMS_P1;PMS_P2;Temp;Humidity;BMP_temperature;BMP_pressure;BME280_temperature;BME280_humidity;BME280_pressure;Samples;Min_cycle;Max_cycle;Signal;HPM_P1;HPM_P2
2022/04/05 00:00:24;;;;;;;;;;;13.20;64.00;;;;;;5006279;28;19918;-86
2022/04/05 00:02:49;;;;;;;;;;;13.30;64.10;;;;;;5029093;28;19932;-86
2022/04/05 00:05:15;;;;;;;;;;;13.20;64.10;;;;;;5033662;28;19917;-86
2022/04/05 00:07:41;;;;;;;;;;;13.30;64.10;;;;;;5015177;28;19948;-86
2022/04/05 00:10:06;;;;;;;;;;;13.30;63.80;;;;;;5015282;28;20061;-86
2022/04/05 00:12:32;;;;;;;;;;;13.30;63.90;;;;;;4997246;28;19936;-86
2022/04/05 00:14:57;;;;;;;;;;;13.30;63.90;;;;;;5030724;28;19917;-85
2022/04/05 00:17:22;;;;;;;;;;;13.30;63.80;;;;;;5031254;28;19958;-85
2022/04/05 00:19:48;;;;;;;;;;;13.30;63.90;;;;;;5006224;28;19913;-86
2022/04/05 00:22:14;;;;;;;;;;;13.30;63.70;;;;;;5014698;28;19949;-85
2022/04/05 00:24:39;;;;;;;;;;;13.30;63.70;;;;;;5013795;28;19918;-85
2022/04/05 00:27:04;;;;;;;;;;;13.30;63.80;;;;;;5024058;28;19914;-85
2022/04/05 00:29:30;;;;;;;;;;;13.30;63.70;;;;;;5025392;28;20375;-85
2022/04/05 00:31:55;;;;;;;;;;;13.30;63.70;;;;;;5035212;28;19913;-84
2022/04/05 00:34:25;;;;;;;;;;;13.30;63.80;;;;;;5021951;28;20663;-86
2022/04/05 00:36:51;;;;;;;;;;;13.30;63.70;;;;;;5031894;28;19921;-84
2022/04/05 00:39:17;;;;;;;;;;;13.20;63.80;;;;;;5006675;28;19968;-86
2022/04/05 00:41:42;;;;;;;;;;;13.20;63.70;;;;;;5013341;28;19922;-84
2022/04/05 00:44:08;;;;;;;;;;;13.20;63.70;;;;;;5014934;28;20004;-84
2022/04/05 00:46:33;;;;;;;;;;;13.30;63.60;;;;;;5012168;28;19921;-84
2022/04/05 00:49:00;;;;;;;;;;;13.30;63.60;;;;;;5012033;28;19920;-86
2022/04/05 00:51:26;;;;;;;;;;;13.20;63.50;;;;;;5033600;28;19917;-85
2022/04/05 00:53:53;;;;;;;;;;;13.20;63.60;;;;;;5031890;28;19917;-85
2022/04/05 00:56:20;;;;;;;;;;;13.20;63.60;;;;;;5031757;28;20284;-85
2022/04/05 00:58:49;;;;;;;;;;;13.20;63.60;;;;;;5032284;28;19917;-85
2022/04/05 01:01:16;;;;;;;;;;;13.20;63.50;;;;;;5033452;28;19917;-85
2022/04/05 01:03:49;;;;;;;;;;;13.20;63.50;;;;;;5032986;28;19919;-85
2022/04/05 01:06:18;;;;;;;;;;;13.20;63.50;;;;;;5008197;28;19999;-85
2022/04/05 01:08:45;;;;;;;;;;;13.20;63.60;;;;;;5031245;28;20365;-84
2022/04/05 01:11:10;;;;;;;;;;;13.10;63.60;;;;;;5032979;28;19940;-84
2022/04/05 01:13:35;;;;;;;;;;;13.20;63.60;;;;;;5015287;28;20381;-84
2022/04/05 01:16:01;;;;;;;;;;;13.20;63.50;;;;;;5015638;28;20288;-84
2022/04/05 01:18:26;;;;;;;;;;;13.20;63.50;;;;;;5032294;28;20364;-86
2022/04/05 01:20:52;;;;;;;;;;;13.10;63.50;;;;;;5015057;28;19918;-85
2022/04/05 01:23:21;;;;;;;;;;;13.10;63.50;;;;;;5006631;28;19917;-85
2022/04/05 01:25:47;;;;;;;;;;;13.10;63.50;;;;;;5031083;28;20285;-85
2022/04/05 01:28:13;;;;;;;;;;;13.10;63.50;;;;;;5032650;28;19920;-85
2022/04/05 01:30:38;;;;;;;;;;;13.00;63.50;;;;;;5028651;28;20312;-84
2022/04/05 01:33:04;;;;;;;;;;;13.00;63.50;;;;;;5030651;28;19920;-84
2022/04/05 01:35:29;;;;;;;;;;;13.00;63.60;;;;;;5015176;28;20047;-85
2022/04/05 01:37:55;;;;;;;;;;;13.00;63.60;;;;;;5031072;28;19947;-83
2022/04/05 01:40:20;;;;;;;;;;;13.00;63.50;;;;;;5016097;28;19917;-85
2022/04/05 01:42:46;;;;;;;;;;;13.00;63.60;;;;;;5015373;28;19917;-84
2022/04/05 01:45:11;;;;;;;;;;;12.90;63.60;;;;;;5016003;28;19928;-85
2022/04/05 01:47:39;;;;;;;;;;;13.00;63.60;;;;;;5017128;28;19931;-85
2022/04/05 01:50:05;;;;;;;;;;;12.90;63.60;;;;;;5015032;28;19913;-85
2022/04/05 01:52:30;;;;;;;;;;;12.90;63.50;;;;;;5032369;28;19914;-85
2022/04/05 01:54:56;;;;;;;;;;;12.90;63.60;;;;;;5015001;28;19917;-84
2022/04/05 01:57:21;;;;;;;;;;;12.90;63.60;;;;;;5020128;28;19921;-85
2022/04/05 01:59:47;;;;;;;;;;;12.90;63.70;;;;;;5014438;28;20381;-85
2022/04/05 02:02:13;;;;;;;;;;;12.90;63.70;;;;;;5032017;28;19924;-85
2022/04/05 02:04:39;;;;;;;;;;;12.80;63.70;;;;;;5014593;28;19913;-86
2022/04/05 02:07:13;;;;;;;;;;;12.90;63.70;;;;;;5009703;28;19928;-84
2022/04/05 02:09:38;;;;;;;;;;;12.90;63.50;;;;;;5012808;28;19947;-86
2022/04/05 02:12:04;;;;;;;;;;;12.90;63.50;;;;;;5017242;28;20353;-87
2022/04/05 02:14:29;;;;;;;;;;;12.90;63.50;;;;;;5010953;28;20349;-86
2022/04/05 02:16:55;;;;;;;;;;;12.90;63.50;;;;;;5032899;28;19921;-84
2022/04/05 02:19:20;;;;;;;;;;;12.90;63.40;;;;;;5032247;28;20008;-86
2022/04/05 02:21:46;;;;;;;;;;;12.90;63.40;;;;;;5032398;28;19921;-86
2022/04/05 02:24:12;;;;;;;;;;;12.90;63.30;;;;;;5025049;28;19917;-85
2022/04/05 02:26:37;;;;;;;;;;;12.90;63.30;;;;;;5031958;28;19917;-85
2022/04/05 02:29:03;;;;;;;;;;;12.90;63.30;;;;;;5031877;28;20300;-85
2022/04/05 02:31:28;;;;;;;;;;;12.90;63.20;;;;;;5030849;28;20004;-85
2022/04/05 02:33:54;;;;;;;;;;;12.90;63.20;;;;;;5030367;28;19917;-85
2022/04/05 02:36:19;;;;;;;;;;;12.80;63.20;;;;;;5030625;28;20003;-85
2022/04/05 02:38:45;;;;;;;;;;;12.80;63.20;;;;;;5029998;28;20388;-85
2022/04/05 02:41:11;;;;;;;;;;;12.80;63.20;;;;;;5031162;28;19921;-85
2022/04/05 02:43:37;;;;;;;;;;;12.80;63.20;;;;;;5024900;28;19917;-85
2022/04/05 02:46:03;;;;;;;;;;;12.80;63.10;;;;;;5018125;28;20004;-86
2022/04/05 02:48:29;;;;;;;;;;;12.90;63.10;;;;;;5017228;28;19914;-85
2022/04/05 02:50:54;;;;;;;;;;;12.90;63.20;;;;;;5026147;28;19924;-85
2022/04/05 02:53:20;;;;;;;;;;;12.90;63.20;;;;;;5017105;28;19928;-84
2022/04/05 02:55:45;;;;;;;;;;;12.90;63.10;;;;;;5025677;28;19917;-86
2022/04/05 02:58:11;;;;;;;;;;;12.90;63.20;;;;;;5013770;28;19925;-86
2022/04/05 03:00:37;;;;;;;;;;;12.90;63.10;;;;;;5028884;28;19921;-85
2022/04/05 03:03:05;;;;;;;;;;;12.90;63.20;;;;;;5028866;28;20305;-85
2022/04/05 03:05:31;;;;;;;;;;;13.00;63.20;;;;;;5032729;28;19921;-84
2022/04/05 03:07:56;;;;;;;;;;;13.00;63.30;;;;;;5034163;28;19936;-85
2022/04/05 03:10:22;;;;;;;;;;;13.00;63.30;;;;;;5031970;28;19914;-84
2022/04/05 03:12:47;;;;;;;;;;;13.00;63.20;;;;;;5007259;28;19913;-85
2022/04/05 03:15:13;;;;;;;;;;;13.00;63.20;;;;;;5031142;28;19939;-85
2022/04/05 03:17:43;;;;;;;;;;;13.00;63.30;;;;;;5010123;28;19959;-85
2022/04/05 03:20:12;;;;;;;;;;;13.10;63.30;;;;;;5032609;28;19928;-85
2022/04/05 03:22:41;;;;;;;;;;;13.10;63.20;;;;;;5008882;28;19917;-85
2022/04/05 03:25:06;;;;;;;;;;;13.10;63.20;;;;;;5019004;28;19921;-85
2022/04/05 03:27:32;;;;;;;;;;;13.10;63.20;;;;;;5014210;28;19913;-85
2022/04/05 03:29:57;;;;;;;;;;;13.10;63.10;;;;;;5033123;28;20345;-85
2022/04/05 03:32:23;;;;;;;;;;;13.10;63.20;;;;;;5008137;28;19977;-85
2022/04/05 03:34:50;;;;;;;;;;;13.10;63.10;;;;;;5009813;28;19924;-85
2022/04/05 03:37:15;;;;;;;;;;;13.10;63.10;;;;;;5014906;28;19913;-85
2022/04/05 03:39:41;;;;;;;;;;;13.10;63.10;;;;;;5033773;28;20246;-84
2022/04/05 03:42:06;;;;;;;;;;;13.10;63.10;;;;;;5033003;28;19921;-85
2022/04/05 03:44:32;;;;;;;;;;;13.10;62.90;;;;;;5030838;28;19913;-85
2022/04/05 03:46:57;;;;;;;;;;;13.10;62.90;;;;;;5032764;28;20007;-86
2022/04/05 03:49:23;;;;;;;;;;;13.10;63.00;;;;;;5031056;28;20332;-85
2022/04/05 03:51:48;;;;;;;;;;;13.10;63.00;;;;;;5026667;28;19921;-86
2022/04/05 03:54:14;;;;;;;;;;;13.00;63.00;;;;;;5013125;28;19914;-85
2022/04/05 03:56:39;;;;;;;;;;;13.10;63.00;;;;;;5012121;28;19964;-86
2022/04/05 03:59:04;;;;;;;;;;;13.00;62.90;;;;;;5012089;28;19933;-85
2022/04/05 04:01:30;;;;;;;;;;;13.00;62.90;;;;;;5013047;28;20374;-85
2022/04/05 04:03:55;;;;;;;;;;;13.00;63.00;;;;;;5014024;28;19948;-86
2022/04/05 04:06:21;;;;;;;;;;;13.00;62.90;;;;;;5013572;28;20636;-86
2022/04/05 04:08:46;;;;;;;;;;;13.00;62.90;;;;;;5027924;28;19921;-85
2022/04/05 04:11:12;;;;;;;;;;;13.00;62.90;;;;;;5011776;28;19920;-86
2022/04/05 04:13:37;;;;;;;;;;;12.90;62.90;;;;;;5004888;28;19964;-86
2022/04/05 04:16:04;;;;;;;;;;;13.00;62.90;;;;;;5007317;28;19914;-86
2022/04/05 04:18:30;;;;;;;;;;;12.90;63.00;;;;;;5014011;28;19920;-86
2022/04/05 04:20:55;;;;;;;;;;;12.90;62.90;;;;;;5029699;28;19921;-86
2022/04/05 04:23:21;;;;;;;;;;;13.00;62.90;;;;;;5014397;28;19918;-87
2022/04/05 04:25:47;;;;;;;;;;;13.00;62.90;;;;;;5012115;28;19960;-86
2022/04/05 04:28:12;;;;;;;;;;;12.90;62.90;;;;;;5007405;28;20268;-86
2022/04/05 04:30:39;;;;;;;;;;;12.90;62.70;;;;;;5009185;28;20289;-86
2022/04/05 04:33:05;;;;;;;;;;;12.90;62.80;;;;;;5027324;28;19956;-86
2022/04/05 04:35:30;;;;;;;;;;;12.90;62.90;;;;;;5013846;28;19921;-87
2022/04/05 04:37:56;;;;;;;;;;;12.90;62.90;;;;;;5023646;28;20273;-86
2022/04/05 04:40:22;;;;;;;;;;;12.90;62.80;;;;;;5025672;28;20059;-86
2022/04/05 04:42:47;;;;;;;;;;;12.90;62.80;;;;;;5012665;28;19914;-86
2022/04/05 04:45:13;;;;;;;;;;;12.90;62.90;;;;;;5009506;28;19918;-87
2022/04/05 04:47:39;;;;;;;;;;;12.80;62.70;;;;;;5000334;28;19971;-86
2022/04/05 04:50:05;;;;;;;;;;;12.80;62.70;;;;;;5013942;28;19920;-85
2022/04/05 04:52:30;;;;;;;;;;;12.80;62.70;;;;;;5013667;28;19913;-86
2022/04/05 04:54:55;;;;;;;;;;;12.80;62.70;;;;;;5014267;28;20301;-87
2022/04/05 04:57:23;;;;;;;;;;;12.70;62.80;;;;;;5028323;28;19914;-85
2022/04/05 04:59:49;;;;;;;;;;;12.70;62.80;;;;;;5020096;28;20414;-87
2022/04/05 05:02:15;;;;;;;;;;;12.70;62.90;;;;;;5007858;28;19922;-86
2022/04/05 05:04:40;;;;;;;;;;;12.70;62.90;;;;;;5009795;28;20357;-85
2022/04/05 05:07:06;;;;;;;;;;;12.70;63.00;;;;;;5011223;28;20399;-85
2022/04/05 05:09:31;;;;;;;;;;;12.80;63.00;;;;;;5012526;28;19976;-86
2022/04/05 05:11:57;;;;;;;;;;;12.80;63.10;;;;;;5010744;28;20365;-86
2022/04/05 05:14:22;;;;;;;;;;;12.80;63.00;;;;;;5012950;28;19913;-86
2022/04/05 05:16:48;;;;;;;;;;;12.80;63.00;;;;;;5009127;28;19918;-86
2022/04/05 05:19:13;;;;;;;;;;;12.90;63.00;;;;;;5014625;28;20377;-86
2022/04/05 05:21:39;;;;;;;;;;;12.80;63.00;;;;;;5028780;28;19917;-86
2022/04/05 05:24:04;;;;;;;;;;;12.90;63.10;;;;;;5028992;28;19917;-86
2022/04/05 05:26:30;;;;;;;;;;;12.90;63.20;;;;;;5013296;28;19917;-85
2022/04/05 05:28:55;;;;;;;;;;;13.00;63.20;;;;;;5028846;28;19913;-85
2022/04/05 05:31:21;;;;;;;;;;;13.00;63.10;;;;;;5012422;28;19917;-86
2022/04/05 05:33:46;;;;;;;;;;;13.10;63.10;;;;;;5010873;28;19914;-86
2022/04/05 05:36:12;;;;;;;;;;;13.10;63.20;;;;;;5006413;28;19921;-86
2022/04/05 05:38:37;;;;;;;;;;;13.20;63.10;;;;;;5009497;28;20004;-87
2022/04/05 05:41:04;;;;;;;;;;;13.20;63.30;;;;;;5013159;28;19929;-85
2022/04/05 05:43:29;;;;;;;;;;;13.20;63.30;;;;;;5011194;28;19913;-84
2022/04/05 05:45:55;;;;;;;;;;;13.30;63.40;;;;;;5022268;28;19924;-86
2022/04/05 05:48:20;;;;;;;;;;;13.40;63.30;;;;;;5023541;28;19917;-86
2022/04/05 05:50:46;;;;;;;;;;;13.40;63.30;;;;;;5003670;28;20061;-86
2022/04/05 05:53:12;;;;;;;;;;;13.50;63.20;;;;;;5027009;28;19918;-85
2022/04/05 05:55:38;;;;;;;;;;;13.50;63.20;;;;;;5027929;28;19981;-86
2022/04/05 05:58:04;;;;;;;;;;;13.50;63.20;;;;;;5011598;28;20358;-86
2022/04/05 06:00:29;;;;;;;;;;;13.50;63.10;;;;;;5007158;28;19968;-86
2022/04/05 06:02:58;;;;;;;;;;;13.60;63.20;;;;;;5009249;28;19913;-85
2022/04/05 06:05:26;;;;;;;;;;;13.60;63.30;;;;;;5028200;28;19950;-86
2022/04/05 06:07:52;;;;;;;;;;;13.70;63.30;;;;;;5020821;28;20381;-86
2022/04/05 06:10:18;;;;;;;;;;;13.80;63.40;;;;;;5029541;28;19920;-85
2022/04/05 06:12:45;;;;;;;;;;;13.80;63.30;;;;;;5015265;28;19925;-85
2022/04/05 06:15:14;;;;;;;;;;;13.80;63.30;;;;;;5022116;28;19913;-86
2022/04/05 06:17:43;;;;;;;;;;;13.90;63.30;;;;;;5008093;28;19913;-86
2022/04/05 06:20:09;;;;;;;;;;;13.90;63.30;;;;;;5008283;28;19947;-85
2022/04/05 06:22:42;;;;;;;;;;;14.00;63.30;;;;;;5015061;28;20000;-86
2022/04/05 06:25:08;;;;;;;;;;;14.10;63.30;;;;;;5017008;28;20000;-86
2022/04/05 06:27:34;;;;;;;;;;;14.20;63.30;;;;;;5033956;28;19917;-84
2022/04/05 06:30:00;;;;;;;;;;;14.20;63.40;;;;;;5029877;28;20016;-86
2022/04/05 06:32:25;;;;;;;;;;;14.20;63.30;;;;;;5029507;28;20028;-85
2022/04/05 06:34:51;;;;;;;;;;;14.30;63.40;;;;;;5024318;28;19943;-84
2022/04/05 06:37:16;;;;;;;;;;;14.30;63.70;;;;;;5034556;28;19928;-87
2022/04/05 06:39:42;;;;;;;;;;;14.40;63.60;;;;;;5012509;28;19917;-85
2022/04/05 06:42:07;;;;;;;;;;;14.40;63.60;;;;;;5023528;28;19929;-86
2022/04/05 06:44:33;;;;;;;;;;;14.50;63.70;;;;;;5011793;28;19917;-85
2022/04/05 06:46:58;;;;;;;;;;;14.60;63.80;;;;;;5010419;28;19972;-86
2022/04/05 06:49:23;;;;;;;;;;;14.60;63.70;;;;;;5034905;28;19913;-86
2022/04/05 06:51:49;;;;;;;;;;;14.60;63.60;;;;;;5013698;28;20040;-86
2022/04/05 06:54:14;;;;;;;;;;;14.70;63.50;;;;;;5032584;28;19924;-86
2022/04/05 06:56:40;;;;;;;;;;;14.70;63.50;;;;;;5008937;28;19924;-85
2022/04/05 06:59:05;;;;;;;;;;;14.80;63.60;;;;;;5015050;28;20328;-86
2022/04/05 07:01:32;;;;;;;;;;;14.80;63.70;;;;;;5029728;28;19921;-86
2022/04/05 07:03:58;;;;;;;;;;;14.90;63.50;;;;;;5033977;28;19917;-88
2022/04/05 07:06:24;;;;;;;;;;;14.90;63.60;;;;;;5033203;28;19921;-84
2022/04/05 07:08:50;;;;;;;;;;;15.00;63.70;;;;;;5027105;28;19975;-84
2022/04/05 07:11:16;;;;;;;;;;;15.00;63.60;;;;;;5021303;28;19913;-85
2022/04/05 07:13:41;;;;;;;;;;;15.00;63.90;;;;;;5012315;28;19940;-84
2022/04/05 07:16:06;;;;;;;;;;;15.10;64.00;;;;;;5011776;28;19913;-84
2022/04/05 07:18:32;;;;;;;;;;;15.20;64.10;;;;;;5027422;28;20010;-84
2022/04/05 07:20:57;;;;;;;;;;;15.30;64.20;;;;;;5011556;28;19921;-83
2022/04/05 07:23:23;;;;;;;;;;;15.40;64.20;;;;;;5028400;28;20667;-85
2022/04/05 07:25:48;;;;;;;;;;;15.40;64.10;;;;;;5011227;28;19925;-84
2022/04/05 07:28:14;;;;;;;;;;;15.50;64.10;;;;;;5010601;28;19920;-86
2022/04/05 07:30:39;;;;;;;;;;;15.50;64.30;;;;;;5023759;28;19968;-86
2022/04/05 07:33:05;;;;;;;;;;;15.70;64.40;;;;;;5030625;28;19921;-85
2022/04/05 07:35:30;;;;;;;;;;;15.80;64.60;;;;;;5029976;28;19921;-87
2022/04/05 07:37:56;;;;;;;;;;;15.80;64.40;;;;;;5009653;28;19921;-86
2022/04/05 07:40:21;;;;;;;;;;;16.00;64.40;;;;;;5010337;28;19917;-86
2022/04/05 07:42:47;;;;;;;;;;;16.00;64.20;;;;;;5031508;28;20304;-86
2022/04/05 07:45:13;;;;;;;;;;;16.10;64.20;;;;;;5013337;28;19968;-86
2022/04/05 07:47:39;;;;;;;;;;;16.20;64.20;;;;;;5023931;28;19952;-86
2022/04/05 07:50:05;;;;;;;;;;;16.30;64.20;;;;;;5025844;28;19944;-85
2022/04/05 07:52:31;;;;;;;;;;;16.40;64.20;;;;;;5027770;28;19913;-86
2022/04/05 07:54:56;;;;;;;;;;;16.40;63.90;;;;;;5027863;28;19964;-87
2022/04/05 07:57:22;;;;;;;;;;;16.50;63.90;;;;;;5025113;28;20004;-86
2022/04/05 07:59:47;;;;;;;;;;;16.70;63.90;;;;;;5005530;28;19917;-85
2022/04/05 08:02:15;;;;;;;;;;;16.80;63.90;;;;;;5019076;28;19922;-87
2022/04/05 08:04:40;;;;;;;;;;;16.80;64.00;;;;;;5009375;28;19913;-86
2022/04/05 08:07:06;;;;;;;;;;;17.00;63.90;;;;;;5030872;28;19921;-86
2022/04/05 08:09:32;;;;;;;;;;;17.00;63.40;;;;;;5009785;28;19917;-86
2022/04/05 08:11:57;;;;;;;;;;;17.00;63.30;;;;;;5031283;28;19925;-86
2022/04/05 08:14:27;;;;;;;;;;;17.00;63.10;;;;;;5015124;28;20365;-86
2022/04/05 08:16:55;;;;;;;;;;;16.90;63.20;;;;;;5029667;28;20384;-86
2022/04/05 08:19:21;;;;;;;;;;;16.90;63.30;;;;;;5029068;28;19921;-86
2022/04/05 08:21:46;;;;;;;;;;;16.80;63.20;;;;;;5032155;28;19921;-86
2022/04/05 08:24:13;;;;;;;;;;;16.70;63.30;;;;;;5031231;28;20296;-86
2022/04/05 08:26:39;;;;;;;;;;;16.70;63.10;;;;;;5032853;28;19998;-86
2022/04/05 08:29:04;;;;;;;;;;;16.70;63.00;;;;;;5025440;28;20357;-85
2022/04/05 08:31:29;;;;;;;;;;;16.60;63.20;;;;;;5029158;28;19914;-85
2022/04/05 08:33:56;;;;;;;;;;;16.60;63.40;;;;;;5028011;28;19921;-87
2022/04/05 08:36:22;;;;;;;;;;;16.50;63.60;;;;;;5012057;28;19925;-85
2022/04/05 08:38:47;;;;;;;;;;;16.50;63.60;;;;;;5013327;28;19917;-87
2022/04/05 08:41:16;;;;;;;;;;;16.50;63.70;;;;;;5008558;28;19918;-86
2022/04/05 08:43:42;;;;;;;;;;;16.60;63.80;;;;;;5009707;28;19964;-86
2022/04/05 08:46:10;;;;;;;;;;;16.60;63.80;;;;;;5011987;28;20029;-86
2022/04/05 08:48:36;;;;;;;;;;;16.60;63.90;;;;;;5028754;28;20789;-86
2022/04/05 08:51:03;;;;;;;;;;;16.70;63.90;;;;;;5014624;28;20003;-86
2022/04/05 08:53:30;;;;;;;;;;;16.70;64.00;;;;;;5014178;28;19975;-86
2022/04/05 08:55:55;;;;;;;;;;;16.70;63.90;;;;;;5029374;28;19913;-85
2022/04/05 08:58:21;;;;;;;;;;;16.80;64.20;;;;;;5029814;28;19963;-86
2022/04/05 09:00:46;;;;;;;;;;;16.90;64.40;;;;;;5012539;28;19929;-86
2022/04/05 09:03:12;;;;;;;;;;;17.00;64.30;;;;;;5011322;28;19932;-86
2022/04/05 09:05:39;;;;;;;;;;;17.00;64.10;;;;;;5014683;28;19914;-87
2022/04/05 09:08:18;;;;;;;;;;;17.10;64.20;;;;;;5015642;28;19936;-86
2022/04/05 09:10:55;;;;;;;;;;;17.20;64.00;;;;;;5013576;28;19913;-86
2022/04/05 09:13:25;;;;;;;;;;;17.20;64.20;;;;;;5009282;28;20362;-86
2022/04/05 09:15:52;;;;;;;;;;;17.30;64.10;;;;;;5013377;28;20321;-87
2022/04/05 09:18:36;;;;;;;;;;;17.30;64.00;;;;;;5021095;28;19913;-87
2022/04/05 09:21:03;;;;;;;;;;;17.30;64.30;;;;;;5025601;28;20004;-87
2022/04/05 09:23:31;;;;;;;;;;;17.50;64.80;;;;;;5029819;28;19921;-86
2022/04/05 09:26:01;;;;;;;;;;;17.70;65.10;;;;;;5014216;28;19913;-87
2022/04/05 09:28:28;;;;;;;;;;;17.80;64.90;;;;;;5014361;28;20373;-86
2022/04/05 09:30:57;;;;;;;;;;;17.90;65.10;;;;;;5014245;28;19914;-88
2022/04/05 09:33:22;;;;;;;;;;;18.00;64.80;;;;;;5018813;28;19914;-88
2022/04/05 09:35:50;;;;;;;;;;;18.10;64.10;;;;;;5029627;28;20404;-87
2022/04/05 09:38:16;;;;;;;;;;;18.20;64.10;;;;;;5029926;28;19913;-86
2022/04/05 09:40:42;;;;;;;;;;;18.20;64.20;;;;;;5012621;28;19924;-86
2022/04/05 09:43:09;;;;;;;;;;;18.30;64.10;;;;;;5016329;28;19929;-87
2022/04/05 09:45:47;;;;;;;;;;;18.30;64.00;;;;;;5013669;28;19921;-86
2022/04/05 09:48:17;;;;;;;;;;;18.30;63.50;;;;;;5041913;28;20613;-87
2022/04/05 09:51:01;;;;;;;;;;;18.30;63.90;;;;;;5017481;28;19910;-88
2022/04/05 09:53:27;;;;;;;;;;;18.30;63.60;;;;;;5016785;28;19926;-86
2022/04/05 09:56:10;;;;;;;;;;;18.30;63.80;;;;;;5037361;28;20273;-86
2022/04/05 09:58:36;;;;;;;;;;;18.30;63.30;;;;;;5017069;28;20566;-87
2022/04/05 10:01:07;;;;;;;;;;;18.20;63.20;;;;;;5036177;28;19955;-87
2022/04/05 10:03:36;;;;;;;;;;;18.10;62.70;;;;;;5027848;28;19948;-87
2022/04/05 10:06:02;;;;;;;;;;;17.80;62.30;;;;;;5037150;28;19913;-86
2022/04/05 10:08:30;;;;;;;;;;;17.70;62.80;;;;;;5020717;28;19909;-86
2022/04/05 10:10:55;;;;;;;;;;;17.60;62.30;;;;;;5035121;28;19952;-87
2022/04/05 10:13:21;;;;;;;;;;;17.40;62.40;;;;;;5040737;28;19971;-88
2022/04/05 10:15:47;;;;;;;;;;;17.40;62.50;;;;;;5020561;28;19940;-87
2022/04/05 10:18:15;;;;;;;;;;;17.30;62.70;;;;;;5042268;28;20399;-87
2022/04/05 10:20:41;;;;;;;;;;;17.20;63.40;;;;;;5017901;28;20020;-87
2022/04/05 10:23:07;;;;;;;;;;;17.20;63.40;;;;;;5015907;28;19957;-86
2022/04/05 10:25:34;;;;;;;;;;;17.20;63.60;;;;;;5036556;28;19958;-87
2022/04/05 10:27:59;;;;;;;;;;;17.20;63.80;;;;;;5036133;28;19924;-86
2022/04/05 10:30:27;;;;;;;;;;;17.10;63.60;;;;;;5016411;28;19914;-87
2022/04/05 10:33:03;;;;;;;;;;;17.10;63.30;;;;;;5023000;28;19913;-87
2022/04/05 10:35:29;;;;;;;;;;;16.90;63.30;;;;;;5019940;28;19909;-86
2022/04/05 10:38:21;;;;;;;;;;;16.90;63.60;;;;;;5023375;28;20737;-87
2022/04/05 10:41:05;;;;;;;;;;;16.90;63.80;;;;;;5008107;28;19924;-87
2022/04/05 10:43:31;;;;;;;;;;;16.90;63.50;;;;;;5049811;28;19920;-87
2022/04/05 10:45:56;;;;;;;;;;;16.80;63.90;;;;;;5039348;28;19923;-86
2022/04/05 10:48:25;;;;;;;;;;;16.90;64.20;;;;;;5040515;28;19945;-86
2022/04/05 10:51:00;;;;;;;;;;;17.00;64.00;;;;;;5020196;28;19975;-88
2022/04/05 10:53:32;;;;;;;;;;;17.00;64.00;;;;;;5038322;28;19995;-87
2022/04/05 10:56:03;;;;;;;;;;;17.10;64.10;;;;;;5036663;28;20336;-87
2022/04/05 10:58:32;;;;;;;;;;;17.10;63.80;;;;;;5036314;28;19963;-86
2022/04/05 11:01:20;;;;;;;;;;;17.20;64.00;;;;;;5036587;28;19917;-88
2022/04/05 11:04:05;;;;;;;;;;;17.20;64.00;;;;;;5006986;28;19917;-87
2022/04/05 11:06:50;;;;;;;;;;;17.30;63.90;;;;;;5018306;28;19918;-87
2022/04/05 11:09:26;;;;;;;;;;;17.30;64.10;;;;;;5037094;28;20358;-87
2022/04/05 11:11:52;;;;;;;;;;;17.40;64.20;;;;;;5016833;28;20377;-88
2022/04/05 11:14:37;;;;;;;;;;;17.40;64.20;;;;;;5041116;28;20015;-87
2022/04/05 11:17:06;;;;;;;;;;;17.40;63.60;;;;;;5036207;28;19971;-88
2022/04/05 11:19:35;;;;;;;;;;;17.30;63.40;;;;;;5037459;28;19933;-87
2022/04/05 11:22:05;;;;;;;;;;;17.30;63.70;;;;;;5036568;28;20487;-86
2022/04/05 11:24:49;;;;;;;;;;;17.30;63.80;;;;;;5037600;28;20008;-87
2022/04/05 11:27:30;;;;;;;;;;;17.30;63.90;;;;;;5019519;28;19955;-86
2022/04/05 11:30:14;;;;;;;;;;;17.30;63.90;;;;;;5036883;28;19956;-87
2022/04/05 11:33:00;;;;;;;;;;;17.40;64.00;;;;;;5037987;28;19913;-86
2022/04/05 11:35:26;;;;;;;;;;;17.40;64.50;;;;;;5033420;28;20380;-87
2022/04/05 11:37:52;;;;;;;;;;;17.50;64.40;;;;;;5014668;28;19914;-86
2022/04/05 11:40:17;;;;;;;;;;;17.60;64.50;;;;;;5013446;28;20293;-86
2022/04/05 11:42:43;;;;;;;;;;;17.80;64.50;;;;;;5036280;28;19928;-86
2022/04/05 11:45:09;;;;;;;;;;;17.90;64.40;;;;;;5035717;28;20354;-87
2022/04/05 11:47:36;;;;;;;;;;;18.00;64.50;;;;;;5035039;28;20584;-87
2022/04/05 11:50:08;;;;;;;;;;;18.20;64.70;;;;;;5031773;28;19920;-87
2022/04/05 11:52:34;;;;;;;;;;;18.30;64.90;;;;;;5018595;28;19920;-87
2022/04/05 11:57:59;;;;;;;;;;;19.00;65.50;;;;;;5041059;28;20320;-86
2022/04/05 12:00:25;;;;;;;;;;;19.30;65.00;;;;;;5035418;28;19925;-86
2022/04/05 12:03:03;;;;;;;;;;;19.50;64.60;;;;;;5032724;28;19917;-88
2022/04/05 12:05:49;;;;;;;;;;;19.60;64.20;;;;;;5033064;28;19945;-87
2022/04/05 12:08:15;;;;;;;;;;;19.60;63.80;;;;;;5003725;28;20008;-87
2022/04/05 12:10:42;;;;;;;;;;;19.50;63.20;;;;;;5035532;28;20058;-86
2022/04/05 12:13:07;;;;;;;;;;;19.50;62.90;;;;;;5043464;28;20311;-87
2022/04/05 12:15:34;;;;;;;;;;;19.40;63.40;;;;;;5038560;28;19917;-87
2022/04/05 12:18:16;;;;;;;;;;;19.50;63.60;;;;;;5018805;28;19920;-86
2022/04/05 12:21:02;;;;;;;;;;;19.70;63.70;;;;;;5036500;28;19968;-86
2022/04/05 12:23:30;;;;;;;;;;;19.80;63.90;;;;;;5032405;28;19924;-86
2022/04/05 12:26:06;;;;;;;;;;;20.00;64.40;;;;;;5035146;28;19914;-88
2022/04/05 12:28:35;;;;;;;;;;;20.30;64.30;;;;;;5044795;28;19921;-86
2022/04/05 12:31:05;;;;;;;;;;;20.40;64.40;;;;;;5015789;28;19917;-88
2022/04/05 12:33:30;;;;;;;;;;;20.60;64.20;;;;;;5025963;28;19920;-87
2022/04/05 12:35:57;;;;;;;;;;;20.70;63.70;;;;;;5036045;28;19917;-87
2022/04/05 12:38:22;;;;;;;;;;;20.90;63.40;;;;;;5034768;28;19921;-87
2022/04/05 12:40:48;;;;;;;;;;;21.00;63.20;;;;;;5035558;28;19917;-87
2022/04/05 12:43:17;;;;;;;;;;;21.10;63.00;;;;;;5034832;28;19917;-87
2022/04/05 12:45:43;;;;;;;;;;;21.10;63.00;;;;;;5014707;28;20365;-86
2022/04/05 12:48:15;;;;;;;;;;;21.30;63.10;;;;;;5030165;28;19947;-87
2022/04/05 12:50:42;;;;;;;;;;;21.30;62.90;;;;;;5034329;28;19986;-87
2022/04/05 12:53:08;;;;;;;;;;;21.30;63.00;;;;;;5016660;28;20387;-88
2022/04/05 12:55:34;;;;;;;;;;;21.40;63.30;;;;;;5016679;28;19913;-87
2022/04/05 12:58:00;;;;;;;;;;;21.70;63.20;;;;;;5030319;28;19944;-87
2022/04/05 13:00:28;;;;;;;;;;;21.90;63.30;;;;;;5017122;28;20296;-86
2022/04/05 13:02:53;;;;;;;;;;;22.00;63.00;;;;;;5023011;28;19956;-88
2022/04/05 13:08:05;;;;;;;;;;;22.30;63.20;;;;;;5029320;28;20325;-88
2022/04/05 13:10:32;;;;;;;;;;;22.40;63.20;;;;;;5011192;28;19945;-87
2022/04/05 13:13:10;;;;;;;;;;;22.50;63.40;;;;;;5037032;28;19921;-86
2022/04/05 13:15:36;;;;;;;;;;;22.70;62.80;;;;;;5017351;28;19972;-86
2022/04/05 13:18:05;;;;;;;;;;;22.80;62.50;;;;;;5034216;28;20020;-88
2022/04/05 13:20:31;;;;;;;;;;;22.90;62.60;;;;;;5033988;28;20438;-87
2022/04/05 13:23:03;;;;;;;;;;;23.10;62.50;;;;;;5017112;28;19956;-86
2022/04/05 13:25:33;;;;;;;;;;;23.30;62.70;;;;;;5017757;28;19913;-87
2022/04/05 13:28:03;;;;;;;;;;;23.40;62.50;;;;;;5014407;28;19921;-85
2022/04/05 13:30:28;;;;;;;;;;;23.40;62.00;;;;;;5027789;28;19924;-86
2022/04/05 13:33:04;;;;;;;;;;;23.30;60.30;;;;;;5034875;28;19909;-87
2022/04/05 13:35:29;;;;;;;;;;;23.10;60.60;;;;;;5034159;28;19956;-88
2022/04/05 13:37:55;;;;;;;;;;;22.80;60.50;;;;;;5034670;28;19909;-88
2022/04/05 13:40:20;;;;;;;;;;;22.60;61.20;;;;;;5015985;28;20534;-86
2022/04/05 13:42:46;;;;;;;;;;;22.40;61.70;;;;;;5030384;28;19917;-87
2022/04/05 13:45:11;;;;;;;;;;;22.30;62.10;;;;;;5016059;28;19918;-87
2022/04/05 13:47:38;;;;;;;;;;;22.20;62.60;;;;;;5035442;28;20357;-87
2022/04/05 13:50:05;;;;;;;;;;;22.10;62.30;;;;;;5039767;28;20048;-87
2022/04/05 13:52:31;;;;;;;;;;;22.10;63.00;;;;;;5032211;28;19949;-86
2022/04/05 13:54:56;;;;;;;;;;;22.20;63.20;;;;;;5013730;28;19913;-86
2022/04/05 13:57:22;;;;;;;;;;;22.30;62.90;;;;;;5015160;28;20277;-87
2022/04/05 13:59:47;;;;;;;;;;;22.30;63.10;;;;;;5032815;28;20258;-86
2022/04/05 14:02:13;;;;;;;;;;;22.30;62.80;;;;;;5014227;28;19921;-87
2022/04/05 14:04:38;;;;;;;;;;;22.30;62.00;;;;;;5025197;28;19917;-90
2022/04/05 14:07:05;;;;;;;;;;;22.30;62.40;;;;;;5034559;28;19924;-90
2022/04/05 14:09:30;;;;;;;;;;;22.20;62.40;;;;;;5032735;28;19983;-90
2022/04/05 14:11:56;;;;;;;;;;;22.20;62.00;;;;;;5017041;28;20321;-91
2022/04/05 14:14:21;;;;;;;;;;;22.10;61.70;;;;;;5018530;28;19916;-90
2022/04/05 14:16:47;;;;;;;;;;;22.10;62.20;;;;;;5035477;28;19932;-89
2022/04/05 14:19:12;;;;;;;;;;;22.10;63.00;;;;;;5034259;28;19917;-91
2022/04/05 14:21:38;;;;;;;;;;;22.10;63.20;;;;;;5016307;28;20299;-91